Time;durP1;ratioP1;P1;durP2;ratioP2;P2;SDS_P1;SDS_P2;PMS_P1;PMS_P2;Temp;Humidity;BMP_temperature;BMP_pressure;BME280_temperature;BME280_humidity;BME280_pressure;Samples;Min_cycle;Max_cycle;Signal;HPM_P1;HPM_P2
2022/11/14 00:02:15;;;;;;;12.43;8.80;;;9.50;99.90;;;;;;4932459;28;20040;-73
2022/11/14 00:04:45;;;;;;;14.20;9.40;;;9.50;99.90;;;;;;4950756;28;20046;-74
2022/11/14 00:07:10;;;;;;;10.95;7.30;;;9.50;99.90;;;;;;4937684;28;20028;-75
2022/11/14 00:09:37;;;;;;;14.20;8.57;;;9.50;99.90;;;;;;4933229;28;20046;-73
2022/11/14 00:12:03;;;;;;;13.07;7.78;;;9.70;99.90;;;;;;4931538;28;20039;-73
2022/11/14 00:14:29;;;;;;;9.77;6.40;;;9.70;99.90;;;;;;4942235;29;20031;-73
2022/11/14 00:16:55;;;;;;;10.68;6.30;;;9.70;99.90;;;;;;4944186;28;20019;-73
2022/11/14 00:19:20;;;;;;;12.73;7.22;;;9.60;99.90;;;;;;4935403;29;20034;-73
2022/11/14 00:21:46;;;;;;;12.57;7.07;;;9.60;99.90;;;;;;4938105;28;20538;-73
2022/11/14 00:24:12;;;;;;;12.90;8.23;;;9.70;99.90;;;;;;4935513;28;20116;-73
2022/11/14 00:26:37;;;;;;;10.63;6.90;;;9.60;99.90;;;;;;4938383;28;20035;-73
2022/11/14 00:29:03;;;;;;;11.73;6.93;;;9.60;99.90;;;;;;4932104;28;20399;-73
2022/11/14 00:31:29;;;;;;;11.80;8.00;;;9.50;99.90;;;;;;4933912;29;20038;-73
2022/11/14 00:33:54;;;;;;;12.30;7.75;;;9.60;99.90;;;;;;4939298;28;20090;-73
2022/11/14 00:36:20;;;;;;;9.82;6.00;;;9.50;99.90;;;;;;4939405;28;20031;-73
2022/11/14 00:38:46;;;;;;;9.88;6.88;;;9.50;99.90;;;;;;4935620;28;20086;-73
2022/11/14 00:41:11;;;;;;;10.23;6.38;;;9.50;99.90;;;;;;4948084;28;20027;-73
2022/11/14 00:43:37;;;;;;;9.65;6.05;;;9.50;99.90;;;;;;4935030;28;20057;-73
2022/11/14 00:46:02;;;;;;;9.90;5.82;;;9.50;99.90;;;;;;4940472;28;20027;-73
2022/11/14 00:48:28;;;;;;;9.63;5.80;;;9.40;99.90;;;;;;4946935;28;20043;-73
2022/11/14 00:50:54;;;;;;;9.75;6.38;;;9.50;99.90;;;;;;4941170;28;20063;-73
2022/11/14 00:53:19;;;;;;;9.52;5.68;;;9.50;99.90;;;;;;4937647;28;20487;-73
2022/11/14 00:55:45;;;;;;;10.27;6.00;;;9.40;99.90;;;;;;4940546;28;20460;-73
2022/11/14 00:58:11;;;;;;;8.98;6.13;;;9.40;99.90;;;;;;4939316;28;20075;-73
2022/11/14 01:00:37;;;;;;;9.27;6.20;;;9.40;99.90;;;;;;4937136;28;20063;-73
2022/11/14 01:03:03;;;;;;;9.60;5.65;;;9.40;99.90;;;;;;4940390;29;20035;-73
2022/11/14 01:05:28;;;;;;;9.75;5.03;;;9.30;99.90;;;;;;4944852;29;20077;-73
2022/11/14 01:07:54;;;;;;;7.15;4.45;;;9.40;99.90;;;;;;4935068;28;20038;-73
2022/11/14 01:10:20;;;;;;;8.20;4.75;;;9.30;99.90;;;;;;4932425;28;20108;-73
2022/11/14 01:12:46;;;;;;;7.93;4.80;;;9.20;99.90;;;;;;4934603;29;20435;-73
2022/11/14 01:15:12;;;;;;;7.45;4.15;;;9.30;99.90;;;;;;4941080;28;20111;-73
2022/11/14 01:17:38;;;;;;;7.50;3.55;;;9.30;99.90;;;;;;4933842;28;20083;-74
2022/11/14 01:20:04;;;;;;;5.72;3.50;;;9.20;99.90;;;;;;4938918;29;20046;-73
2022/11/14 01:22:30;;;;;;;6.45;3.70;;;9.20;99.90;;;;;;4939159;29;20050;-73
2022/11/14 01:24:57;;;;;;;6.03;3.75;;;9.20;99.90;;;;;;4932734;29;20028;-73
2022/11/14 01:27:23;;;;;;;7.40;3.63;;;9.10;99.90;;;;;;4938880;28;20046;-73
2022/11/14 01:29:49;;;;;;;7.75;3.60;;;9.20;99.90;;;;;;4939968;28;20034;-73
2022/11/14 01:32:15;;;;;;;6.53;3.63;;;9.10;99.90;;;;;;4939642;28;20043;-73
2022/11/14 01:34:41;;;;;;;5.22;3.33;;;9.10;99.90;;;;;;4944347;29;20490;-73
2022/11/14 01:37:06;;;;;;;5.95;4.00;;;9.10;99.90;;;;;;4931988;28;20048;-73
2022/11/14 01:39:32;;;;;;;5.18;2.75;;;9.10;99.90;;;;;;4932949;28;20043;-73
2022/11/14 01:41:58;;;;;;;5.00;2.55;;;9.10;99.90;;;;;;4941818;28;20105;-73
2022/11/14 01:44:38;;;;;;;4.40;2.40;;;9.10;99.90;;;;;;4934459;28;20027;-74
2022/11/14 01:47:05;;;;;;;6.22;2.50;;;9.10;99.90;;;;;;4931965;29;20032;-73
2022/11/14 01:49:37;;;;;;;4.88;2.63;;;9.10;99.90;;;;;;4934106;28;20443;-73
2022/11/14 01:52:39;;;;;;;3.78;2.25;;;9.00;99.90;;;;;;4940359;28;20046;-73
2022/11/14 01:55:07;;;;;;;6.75;2.75;;;9.00;99.90;;;;;;4963330;28;20041;-73
2022/11/14 01:57:37;;;;;;;4.38;2.45;;;9.10;99.90;;;;;;4944019;28;20039;-73
2022/11/14 02:00:07;;;;;;;4.65;2.42;;;8.90;99.90;;;;;;4947084;29;20054;-73
2022/11/14 02:02:33;;;;;;;4.65;2.17;;;9.00;99.90;;;;;;4935607;28;20157;-73
2022/11/14 02:05:14;;;;;;;4.18;2.20;;;9.00;99.90;;;;;;4947324;28;20098;-73
2022/11/14 02:07:41;;;;;;;6.55;2.38;;;9.00;99.90;;;;;;4942507;28;20087;-73
2022/11/14 02:10:15;;;;;;;5.50;2.35;;;8.80;99.90;;;;;;4942339;28;20054;-73
2022/11/14 02:12:42;;;;;;;4.35;2.60;;;8.80;99.90;;;;;;4934758;29;20770;-73
2022/11/14 02:15:08;;;;;;;3.78;2.15;;;8.80;99.90;;;;;;4937184;29;20047;-73
2022/11/14 02:17:34;;;;;;;4.43;2.20;;;8.80;99.90;;;;;;4953565;28;20065;-73
2022/11/14 02:20:13;;;;;;;3.97;2.10;;;8.80;99.90;;;;;;4942150;28;20043;-73
2022/11/14 02:22:40;;;;;;;5.32;2.10;;;8.80;99.90;;;;;;4937867;28;20038;-73
2022/11/14 02:25:07;;;;;;;3.90;1.80;;;8.80;99.90;;;;;;4946185;28;20028;-74
2022/11/14 02:27:35;;;;;;;4.05;2.15;;;8.90;99.90;;;;;;4938605;29;20117;-73
2022/11/14 02:30:12;;;;;;;3.95;1.70;;;8.90;99.90;;;;;;4933512;28;20031;-73
2022/11/14 02:32:38;;;;;;;6.75;3.05;;;8.80;99.90;;;;;;4944962;28;20039;-73
2022/11/14 02:35:04;;;;;;;5.57;3.08;;;8.80;99.90;;;;;;4944725;28;20038;-73
2022/11/14 02:37:30;;;;;;;5.53;3.08;;;8.90;99.90;;;;;;4938226;29;20076;-73
2022/11/14 02:39:55;;;;;;;5.95;2.88;;;8.90;99.90;;;;;;4942849;28;20027;-73
2022/11/14 02:42:21;;;;;;;5.32;2.22;;;8.90;99.90;;;;;;4938435;28;20077;-73
2022/11/14 02:44:46;;;;;;;4.65;2.65;;;8.80;99.90;;;;;;4941798;28;20028;-73
2022/11/14 02:47:12;;;;;;;5.43;2.47;;;8.70;99.90;;;;;;4947748;29;20039;-73
2022/11/14 02:49:38;;;;;;;3.80;2.05;;;8.60;99.90;;;;;;4939301;28;20459;-73
2022/11/14 02:52:03;;;;;;;4.55;2.35;;;8.70;99.90;;;;;;4941171;28;20118;-73
2022/11/14 02:54:29;;;;;;;8.48;4.60;;;8.60;99.90;;;;;;4936278;28;20035;-73
2022/11/14 02:56:55;;;;;;;4.25;2.20;;;8.60;99.90;;;;;;4933496;29;20119;-73
2022/11/14 02:59:21;;;;;;;4.45;2.53;;;8.50;99.90;;;;;;4935072;28;20051;-73
2022/11/14 03:01:46;;;;;;;7.13;3.58;;;8.60;99.90;;;;;;4949729;28;20020;-73
2022/11/14 03:04:12;;;;;;;11.07;6.05;;;8.60;99.90;;;;;;4949061;28;20027;-73
2022/11/14 03:06:37;;;;;;;11.65;7.43;;;8.70;99.90;;;;;;4946753;28;20090;-73
2022/11/14 03:09:03;;;;;;;10.35;5.38;;;8.80;99.90;;;;;;4942382;28;20045;-73
2022/11/14 03:11:30;;;;;;;5.45;2.72;;;8.70;99.90;;;;;;4936051;28;20541;-73
2022/11/14 03:13:55;;;;;;;6.43;3.50;;;8.70;99.90;;;;;;4935574;28;20390;-73
2022/11/14 03:16:21;;;;;;;7.13;4.13;;;8.70;99.90;;;;;;4939459;28;20062;-73
2022/11/14 03:18:47;;;;;;;5.85;3.33;;;8.70;99.90;;;;;;4934496;28;20394;-73
2022/11/14 03:21:18;;;;;;;7.15;3.20;;;8.60;99.90;;;;;;4938724;29;20028;-73
2022/11/14 03:23:44;;;;;;;4.47;2.13;;;8.60;99.90;;;;;;4936885;29;20122;-73
2022/11/14 03:26:12;;;;;;;4.88;2.50;;;8.50;99.90;;;;;;4937497;28;20478;-73
2022/11/14 03:28:38;;;;;;;5.03;3.00;;;8.50;99.90;;;;;;4943922;28;20035;-74
2022/11/14 03:31:05;;;;;;;5.00;2.33;;;8.40;99.90;;;;;;4937440;29;20084;-73
2022/11/14 03:33:31;;;;;;;5.70;2.17;;;8.40;99.90;;;;;;4942680;28;20070;-73
2022/11/14 03:35:57;;;;;;;5.68;2.22;;;8.50;99.90;;;;;;4942278;28;20393;-73
2022/11/14 03:38:22;;;;;;;5.43;2.00;;;8.60;99.90;;;;;;4933377;28;20027;-73
2022/11/14 03:40:50;;;;;;;4.05;2.05;;;8.60;99.90;;;;;;4935478;28;20031;-73
2022/11/14 03:43:17;;;;;;;6.78;2.80;;;8.50;99.90;;;;;;4932170;28;20031;-74
2022/11/14 03:45:43;;;;;;;5.45;2.45;;;8.50;99.90;;;;;;4932564;29;20046;-73
2022/11/14 03:48:09;;;;;;;4.22;2.30;;;8.40;99.90;;;;;;4942895;29;20391;-73
2022/11/14 03:50:34;;;;;;;4.63;2.13;;;8.40;99.90;;;;;;4933680;29;20036;-73
2022/11/14 03:53:00;;;;;;;5.18;2.20;;;8.30;99.90;;;;;;4944023;28;20579;-74
2022/11/14 03:55:26;;;;;;;4.18;2.45;;;8.20;99.90;;;;;;4935383;28;20122;-73
2022/11/14 03:57:52;;;;;;;5.68;2.40;;;8.20;99.90;;;;;;4941495;29;20032;-73
2022/11/14 04:00:18;;;;;;;4.13;2.20;;;8.20;99.90;;;;;;4933178;28;20036;-73
2022/11/14 04:02:43;;;;;;;5.53;2.88;;;8.10;99.90;;;;;;4944030;28;21111;-73
2022/11/14 04:05:09;;;;;;;5.30;2.45;;;8.20;99.90;;;;;;4930433;28;20494;-72
2022/11/14 04:07:35;;;;;;;6.85;2.20;;;8.30;99.90;;;;;;4932640;28;20036;-73
2022/11/14 04:10:01;;;;;;;3.90;2.20;;;8.30;99.90;;;;;;4939728;28;20049;-73
2022/11/14 04:12:26;;;;;;;4.78;2.50;;;8.20;99.90;;;;;;4933721;29;20040;-72
2022/11/14 04:14:52;;;;;;;4.20;2.30;;;8.20;99.90;;;;;;4932292;28;20035;-73
2022/11/14 04:17:18;;;;;;;4.65;2.40;;;8.30;99.90;;;;;;4927347;28;20027;-73
2022/11/14 04:19:43;;;;;;;4.75;2.30;;;8.30;99.90;;;;;;4940239;28;20043;-74
2022/11/14 04:22:09;;;;;;;5.28;2.20;;;8.30;99.90;;;;;;4932388;29;20039;-73
2022/11/14 04:24:34;;;;;;;3.72;1.83;;;8.30;99.90;;;;;;4935458;28;20027;-73
2022/11/14 04:27:00;;;;;;;3.85;1.95;;;8.20;99.90;;;;;;4937950;28;20494;-73
2022/11/14 04:29:26;;;;;;;4.75;2.03;;;8.30;99.90;;;;;;4934300;29;20624;-73
2022/11/14 04:31:51;;;;;;;4.32;2.20;;;8.30;99.90;;;;;;4939764;28;20052;-73
2022/11/14 04:34:17;;;;;;;4.68;1.98;;;8.40;99.90;;;;;;4941623;28;20139;-73
2022/11/14 04:36:43;;;;;;;3.60;1.88;;;8.40;99.90;;;;;;4935248;28;20125;-73
2022/11/14 04:39:09;;;;;;;3.65;1.92;;;8.40;99.90;;;;;;4931856;28;20459;-73
2022/11/14 04:41:34;;;;;;;5.47;2.15;;;8.50;99.90;;;;;;4937598;28;20090;-74
2022/11/14 04:44:00;;;;;;;4.47;2.25;;;8.50;99.90;;;;;;4927533;28;20099;-73
2022/11/14 04:46:25;;;;;;;3.83;2.33;;;8.50;99.90;;;;;;4927390;28;20151;-73
2022/11/14 04:48:51;;;;;;;4.05;2.08;;;8.60;99.90;;;;;;4927967;29;20036;-73
2022/11/14 04:51:17;;;;;;;4.57;2.35;;;8.60;99.90;;;;;;4928080;28;20950;-73
2022/11/14 04:53:42;;;;;;;6.07;3.22;;;8.50;99.90;;;;;;4936391;28;20044;-73
2022/11/14 04:56:08;;;;;;;7.95;4.70;;;8.50;99.90;;;;;;4941064;28;20024;-73
2022/11/14 04:58:33;;;;;;;8.63;4.90;;;8.60;99.90;;;;;;4924590;29;20051;-73
2022/11/14 05:01:05;;;;;;;8.70;5.22;;;8.60;99.90;;;;;;4929072;28;20087;-73
2022/11/14 05:03:31;;;;;;;7.82;4.03;;;8.70;99.90;;;;;;4932317;28;20059;-73
2022/11/14 05:06:00;;;;;;;4.47;2.60;;;8.60;99.90;;;;;;4928893;28;20505;-73
2022/11/14 05:08:26;;;;;;;4.57;2.80;;;8.60;99.90;;;;;;4938113;29;20046;-73
2022/11/14 05:10:51;;;;;;;6.13;2.95;;;8.60;99.90;;;;;;4924243;28;20055;-73
2022/11/14 05:13:17;;;;;;;4.90;2.50;;;8.60;99.90;;;;;;4931818;28;20541;-73
2022/11/14 05:15:42;;;;;;;4.00;1.80;;;8.60;99.90;;;;;;4924100;28;20036;-73
2022/11/14 05:18:08;;;;;;;5.20;2.40;;;8.60;99.90;;;;;;4929073;28;20082;-73
2022/11/14 05:20:34;;;;;;;6.85;3.38;;;8.60;99.90;;;;;;4941916;28;20039;-73
2022/11/14 05:22:59;;;;;;;6.28;3.40;;;8.60;99.90;;;;;;4924616;28;20063;-73
2022/11/14 05:25:25;;;;;;;5.00;2.90;;;8.70;99.90;;;;;;4923786;29;20078;-73
2022/11/14 05:27:51;;;;;;;3.80;2.20;;;8.70;99.90;;;;;;4930685;28;20629;-72
2022/11/14 05:30:18;;;;;;;3.58;1.65;;;8.60;99.90;;;;;;4929291;28;20460;-73
2022/11/14 05:32:43;;;;;;;4.07;1.65;;;8.70;99.90;;;;;;4922513;28;20138;-73
2022/11/14 05:35:09;;;;;;;4.30;2.10;;;8.70;99.90;;;;;;4924153;28;20040;-73
2022/11/14 05:37:35;;;;;;;3.85;2.10;;;8.70;99.90;;;;;;4934858;29;20534;-72
2022/11/14 05:40:01;;;;;;;4.55;2.08;;;8.70;99.90;;;;;;4939185;29;20063;-72
2022/11/14 05:42:27;;;;;;;3.90;1.98;;;8.60;99.90;;;;;;4929009;29;20466;-72
2022/11/14 05:44:53;;;;;;;6.53;2.20;;;8.70;99.90;;;;;;4928706;28;20035;-72
2022/11/14 05:47:19;;;;;;;5.47;2.25;;;8.70;99.90;;;;;;4934897;28;20031;-72
2022/11/14 05:49:44;;;;;;;3.67;2.13;;;8.70;99.90;;;;;;4937854;28;20047;-72
2022/11/14 05:52:10;;;;;;;6.25;2.13;;;8.60;99.90;;;;;;4926067;28;20054;-72
2022/11/14 05:54:36;;;;;;;4.38;2.63;;;8.70;99.90;;;;;;4926213;29;20038;-72
2022/11/14 05:57:02;;;;;;;5.70;2.45;;;8.70;99.90;;;;;;4926740;28;20066;-72
2022/11/14 05:59:28;;;;;;;4.13;2.10;;;8.70;99.90;;;;;;4924521;28;20111;-72
2022/11/14 06:01:54;;;;;;;5.25;1.90;;;8.70;99.90;;;;;;4927208;28;20032;-72
2022/11/14 06:04:19;;;;;;;4.93;2.42;;;8.70;99.90;;;;;;4925362;29;20035;-72
2022/11/14 06:06:45;;;;;;;5.10;2.47;;;8.60;99.90;;;;;;4934416;28;20087;-72
2022/11/14 06:09:10;;;;;;;4.35;2.30;;;8.50;99.90;;;;;;4940772;28;20054;-72
2022/11/14 06:11:36;;;;;;;6.30;2.60;;;8.50;99.90;;;;;;4941030;28;20028;-72
2022/11/14 06:14:02;;;;;;;3.75;2.03;;;8.50;99.90;;;;;;4938244;28;20143;-72
2022/11/14 06:16:28;;;;;;;5.97;2.97;;;8.60;99.90;;;;;;4928901;28;20800;-72
2022/11/14 06:18:54;;;;;;;4.88;2.65;;;8.50;99.90;;;;;;4935553;28;20119;-72
2022/11/14 06:21:22;;;;;;;3.85;2.00;;;8.60;99.90;;;;;;4933274;28;20086;-71
2022/11/14 06:23:49;;;;;;;4.78;2.40;;;8.50;99.90;;;;;;4927293;29;20031;-72
2022/11/14 06:26:26;;;;;;;4.65;1.98;;;8.50;99.90;;;;;;4936468;28;20385;-71
2022/11/14 06:28:52;;;;;;;4.13;2.28;;;8.80;99.90;;;;;;4930825;28;20020;-72
2022/11/14 06:31:21;;;;;;;3.97;2.22;;;8.70;99.90;;;;;;4931950;29;20095;-72
2022/11/14 06:33:47;;;;;;;3.65;2.00;;;8.60;99.90;;;;;;4935860;29;20531;-71
2022/11/14 06:36:13;;;;;;;3.13;1.70;;;8.60;99.90;;;;;;4936777;29;20039;-71
2022/11/14 06:38:40;;;;;;;4.28;1.85;;;8.50;99.90;;;;;;4935339;28;20039;-71
2022/11/14 06:41:06;;;;;;;3.45;1.80;;;8.60;99.90;;;;;;4926596;29;20031;-72
2022/11/14 06:43:34;;;;;;;2.63;1.27;;;8.60;99.90;;;;;;4927167;29;20051;-72
2022/11/14 06:45:59;;;;;;;3.40;1.27;;;8.70;99.90;;;;;;4944776;29;20689;-72
2022/11/14 06:48:25;;;;;;;2.65;1.52;;;8.80;99.90;;;;;;4935468;28;20122;-72
2022/11/14 06:50:55;;;;;;;2.95;1.52;;;8.70;99.90;;;;;;4948748;28;20036;-72
2022/11/14 06:53:21;;;;;;;3.35;1.80;;;8.70;99.90;;;;;;4929175;28;20057;-72
2022/11/14 06:56:04;;;;;;;3.83;1.48;;;8.70;99.90;;;;;;4937555;29;20031;-73
2022/11/14 06:58:33;;;;;;;3.00;1.52;;;8.70;99.90;;;;;;4931852;29;20131;-72
2022/11/14 07:01:35;;;;;;;3.67;1.63;;;8.80;99.90;;;;;;4938252;29;20129;-73
2022/11/14 07:04:01;;;;;;;3.65;1.65;;;8.80;99.90;;;;;;4943849;28;20039;-72
2022/11/14 07:06:28;;;;;;;5.32;1.40;;;8.80;99.90;;;;;;4939203;29;20086;-72
2022/11/14 07:08:56;;;;;;;4.28;2.17;;;8.80;99.90;;;;;;4926109;28;20534;-73
2022/11/14 07:11:25;;;;;;;3.63;1.80;;;8.80;99.90;;;;;;4932519;29;20082;-73
2022/11/14 07:13:58;;;;;;;2.90;1.58;;;8.90;99.90;;;;;;4930049;29;20031;-73
2022/11/14 07:16:34;;;;;;;4.30;2.17;;;8.80;99.90;;;;;;4929163;29;20035;-73
2022/11/14 07:19:01;;;;;;;3.72;2.13;;;8.80;99.90;;;;;;4938738;29;20040;-73
2022/11/14 07:21:29;;;;;;;4.82;2.40;;;8.80;99.90;;;;;;4927416;29;20071;-73
2022/11/14 07:23:56;;;;;;;2.50;1.50;;;8.70;99.90;;;;;;4932610;29;20047;-73
2022/11/14 07:26:22;;;;;;;4.43;2.15;;;8.70;99.90;;;;;;4931621;28;20038;-73
2022/11/14 07:28:48;;;;;;;4.55;2.45;;;8.50;99.90;;;;;;4932921;28;20036;-73
2022/11/14 07:31:16;;;;;;;3.60;2.03;;;8.60;99.90;;;;;;4930948;28;20040;-72
2022/11/14 07:33:43;;;;;;;4.88;1.60;;;8.60;99.90;;;;;;4928279;29;20521;-72
2022/11/14 07:36:10;;;;;;;3.08;1.50;;;8.50;99.90;;;;;;4927075;29;20046;-72
2022/11/14 07:38:36;;;;;;;5.55;3.13;;;8.60;99.90;;;;;;4933916;29;20031;-72
2022/11/14 07:41:05;;;;;;;6.63;4.05;;;8.60;99.90;;;;;;4933827;29;20024;-73
2022/11/14 07:43:31;;;;;;;5.38;3.13;;;8.60;99.90;;;;;;4932975;28;21012;-72
2022/11/14 07:46:05;;;;;;;5.43;3.05;;;8.60;99.90;;;;;;4934126;28;20114;-74
2022/11/14 07:48:31;;;;;;;3.90;2.42;;;8.60;99.90;;;;;;4933174;29;20031;-72
2022/11/14 07:51:01;;;;;;;4.57;2.30;;;8.70;99.90;;;;;;4931844;29;20458;-73
2022/11/14 07:53:27;;;;;;;4.72;2.40;;;8.60;99.90;;;;;;4945710;29;20382;-73
2022/11/14 07:55:53;;;;;;;4.18;2.17;;;8.70;99.90;;;;;;4933833;28;20427;-73
2022/11/14 07:58:19;;;;;;;6.35;2.88;;;8.60;99.90;;;;;;4934749;29;20060;-73
2022/11/14 08:00:45;;;;;;;4.38;2.20;;;8.60;99.90;;;;;;4928124;29;20556;-73
2022/11/14 08:03:10;;;;;;;5.38;2.53;;;8.70;99.90;;;;;;4928185;29;20070;-73
2022/11/14 08:05:36;;;;;;;3.72;2.00;;;8.70;99.90;;;;;;4928065;29;20548;-73
2022/11/14 08:08:02;;;;;;;6.07;2.40;;;8.70;99.90;;;;;;4928061;29;20390;-72
2022/11/14 08:10:28;;;;;;;4.47;2.35;;;8.80;99.90;;;;;;4928408;29;20108;-73
2022/11/14 08:12:59;;;;;;;5.35;2.20;;;8.80;99.90;;;;;;4927297;29;20451;-73
2022/11/14 08:15:25;;;;;;;8.57;2.55;;;8.80;99.90;;;;;;4928565;29;20035;-72
2022/11/14 08:17:51;;;;;;;4.97;2.28;;;8.80;99.90;;;;;;4927298;29;20024;-73
2022/11/14 08:20:16;;;;;;;3.90;2.17;;;8.80;99.90;;;;;;4932919;29;20601;-73
2022/11/14 08:22:42;;;;;;;6.03;2.20;;;8.90;99.90;;;;;;4929309;29;20032;-73
2022/11/14 08:25:08;;;;;;;4.47;2.33;;;8.80;99.90;;;;;;4929081;28;20844;-73
2022/11/14 08:27:33;;;;;;;3.63;1.98;;;8.90;99.90;;;;;;4927226;29;20533;-73
2022/11/14 08:29:59;;;;;;;3.92;1.77;;;8.90;99.90;;;;;;4927946;29;20082;-73
2022/11/14 08:32:25;;;;;;;4.10;2.10;;;9.00;99.90;;;;;;4927392;29;20051;-73
2022/11/14 08:34:50;;;;;;;5.05;2.50;;;9.00;99.90;;;;;;4929437;29;20537;-73
2022/11/14 08:37:16;;;;;;;4.63;2.60;;;9.00;99.90;;;;;;4934906;28;20083;-74
2022/11/14 08:39:42;;;;;;;5.68;2.78;;;9.00;99.90;;;;;;4934314;29;20561;-73
2022/11/14 08:42:08;;;;;;;5.95;3.10;;;9.00;99.90;;;;;;4944574;28;20039;-73
2022/11/14 08:44:33;;;;;;;6.18;3.88;;;9.10;99.90;;;;;;4935299;29;20588;-73
2022/11/14 08:46:59;;;;;;;7.45;4.10;;;9.10;99.90;;;;;;4930803;29;20031;-73
2022/11/14 08:49:25;;;;;;;6.55;3.63;;;9.10;99.90;;;;;;4938917;28;20027;-73
2022/11/14 08:51:52;;;;;;;6.72;3.80;;;9.00;99.90;;;;;;4934099;28;20510;-73
2022/11/14 08:54:18;;;;;;;8.40;4.25;;;9.10;99.90;;;;;;4934159;29;20065;-73
2022/11/14 08:56:44;;;;;;;7.70;4.78;;;9.20;99.90;;;;;;4928728;29;20509;-73
2022/11/14 08:59:09;;;;;;;8.77;5.38;;;9.20;99.90;;;;;;4940484;29;20059;-73
2022/11/14 09:01:35;;;;;;;7.10;4.80;;;9.20;99.90;;;;;;4928603;28;20608;-73
2022/11/14 09:04:01;;;;;;;8.20;4.53;;;9.20;99.90;;;;;;4935948;29;20039;-73
2022/11/14 09:06:27;;;;;;;7.28;4.13;;;9.30;99.90;;;;;;4930625;28;20550;-73
2022/11/14 09:08:53;;;;;;;8.32;4.70;;;9.20;99.90;;;;;;4939211;29;20059;-73
2022/11/14 09:11:19;;;;;;;9.73;5.72;;;9.40;99.90;;;;;;4945991;28;20062;-73
2022/11/14 09:13:45;;;;;;;6.88;4.68;;;9.40;99.90;;;;;;4936813;28;20046;-73
2022/11/14 09:16:10;;;;;;;7.07;4.40;;;9.50;99.90;;;;;;4933952;29;20111;-73
2022/11/14 09:18:36;;;;;;;9.13;5.20;;;9.50;99.90;;;;;;4935378;29;20046;-73
2022/11/14 09:21:04;;;;;;;7.32;4.78;;;9.60;99.90;;;;;;4945272;28;20031;-73
2022/11/14 09:23:30;;;;;;;7.15;4.13;;;9.50;99.90;;;;;;4938316;28;20110;-73
2022/11/14 09:25:55;;;;;;;6.15;4.15;;;9.50;99.90;;;;;;4938097;29;20131;-73
2022/11/14 09:28:23;;;;;;;5.47;3.30;;;9.50;99.90;;;;;;4943995;29;20077;-73
2022/11/14 09:30:48;;;;;;;6.82;3.30;;;9.60;99.90;;;;;;4936831;28;20167;-73
2022/11/14 09:33:14;;;;;;;6.03;3.60;;;9.60;99.90;;;;;;4935653;28;20080;-73
2022/11/14 09:35:40;;;;;;;6.38;3.90;;;9.60;99.90;;;;;;4933912;29;20127;-73
2022/11/14 09:38:08;;;;;;;10.50;4.60;;;9.60;99.90;;;;;;4934190;28;20471;-73
2022/11/14 09:41:02;;;;;;;7.50;4.55;;;9.80;99.90;;;;;;4935339;29;20102;-73
2022/11/14 09:43:42;;;;;;;7.18;4.30;;;9.80;99.90;;;;;;4940057;29;20121;-73
2022/11/14 09:46:26;;;;;;;6.88;4.18;;;9.80;99.90;;;;;;4940405;29;20027;-73
2022/11/14 09:48:53;;;;;;;9.83;4.13;;;9.80;99.90;;;;;;4936890;29;20034;-73
2022/11/14 09:51:31;;;;;;;7.63;4.55;;;9.90;99.90;;;;;;4926762;28;20075;-73
2022/11/14 09:54:15;;;;;;;9.65;6.07;;;10.10;99.90;;;;;;4927031;29;20052;-73
2022/11/14 09:56:41;;;;;;;11.60;6.35;;;10.00;99.90;;;;;;4931221;29;20050;-73
2022/11/14 09:59:13;;;;;;;14.93;8.20;;;10.00;99.90;;;;;;4933474;29;20130;-73
2022/11/14 10:02:04;;;;;;;11.50;7.60;;;10.00;99.90;;;;;;4940621;29;20046;-73
2022/11/14 10:04:48;;;;;;;9.32;5.03;;;10.10;99.90;;;;;;4928083;29;20028;-73
2022/11/14 10:07:50;;;;;;;7.57;5.03;;;10.00;99.90;;;;;;4939144;29;20035;-73
2022/11/14 10:10:24;;;;;;;7.90;4.60;;;10.00;99.90;;;;;;4932778;29;20027;-73
2022/11/14 10:13:15;;;;;;;7.20;4.78;;;9.90;99.90;;;;;;4928886;29;20686;-73
2022/11/14 10:16:12;;;;;;;10.32;6.13;;;9.80;99.90;;;;;;4936375;28;20032;-73
2022/11/14 10:18:44;;;;;;;9.40;6.10;;;9.90;99.90;;;;;;4935842;28;20071;-73
2022/11/14 10:21:46;;;;;;;13.90;6.47;;;10.00;99.90;;;;;;4931931;29;20561;-73
2022/11/14 10:24:45;;;;;;;10.93;6.65;;;10.10;99.90;;;;;;4952671;28;20035;-73
2022/11/14 10:27:40;;;;;;;14.93;8.07;;;10.00;99.90;;;;;;4931880;29;20035;-73
2022/11/14 10:30:14;;;;;;;11.75;7.35;;;10.00;99.90;;;;;;4947036;29;20039;-73
2022/11/14 10:32:52;;;;;;;12.80;7.38;;;10.20;99.90;;;;;;4938158;29;20040;-73
2022/11/14 10:35:34;;;;;;;12.45;7.15;;;10.20;99.90;;;;;;4930741;29;20035;-73
2022/11/14 10:38:33;;;;;;;13.32;7.20;;;10.20;99.90;;;;;;4931296;29;20051;-73
2022/11/14 10:41:05;;;;;;;9.45;6.18;;;10.20;99.90;;;;;;4938478;29;20039;-73
2022/11/14 10:43:47;;;;;;;10.30;6.45;;;10.30;99.90;;;;;;4930271;29;20553;-73
2022/11/14 10:46:31;;;;;;;10.82;6.53;;;10.30;99.90;;;;;;4940516;29;20027;-73
2022/11/14 10:48:58;;;;;;;8.80;5.93;;;10.30;99.90;;;;;;4930239;29;20636;-73
2022/11/14 10:51:38;;;;;;;12.00;5.28;;;10.30;99.90;;;;;;4932595;29;20039;-73
2022/11/14 10:54:31;;;;;;;10.50;6.40;;;10.40;99.90;;;;;;4928743;29;20800;-73
2022/11/14 10:56:57;;;;;;;8.73;5.55;;;10.50;99.90;;;;;;4933528;29;20546;-72
2022/11/14 10:59:23;;;;;;;11.18;7.40;;;10.50;99.90;;;;;;4935344;29;20052;-72
2022/11/14 11:01:49;;;;;;;8.38;5.63;;;10.40;99.90;;;;;;4930277;29;20432;-72
2022/11/14 11:04:29;;;;;;;7.90;4.53;;;10.50;99.90;;;;;;4929008;29;20060;-73
2022/11/14 11:07:07;;;;;;;7.00;3.50;;;10.50;99.90;;;;;;4928973;29;20557;-72
2022/11/14 11:12:37;;;;;;;8.52;4.70;;;10.30;99.90;;;;;;4937717;29;20050;-72
2022/11/14 11:15:15;;;;;;;8.60;5.18;;;10.50;99.90;;;;;;4928696;29;20032;-72
2022/11/14 11:17:59;;;;;;;8.00;4.97;;;10.60;99.90;;;;;;4932278;29;20456;-73
2022/11/14 11:20:25;;;;;;;7.05;4.35;;;10.80;99.90;;;;;;4930811;29;20036;-73
2022/11/14 11:23:01;;;;;;;7.70;5.18;;;10.80;99.90;;;;;;4935128;29;20035;-72
2022/11/14 11:25:29;;;;;;;7.20;4.20;;;10.80;99.90;;;;;;4929976;29;20517;-72
2022/11/14 11:28:13;;;;;;;6.82;4.35;;;10.80;99.90;;;;;;4929730;29;20167;-72
2022/11/14 11:30:39;;;;;;;9.13;4.80;;;10.80;99.90;;;;;;4929086;29;20066;-72
2022/11/14 11:33:21;;;;;;;7.35;4.70;;;10.70;99.90;;;;;;4929833;29;20763;-73
2022/11/14 11:35:49;;;;;;;7.47;4.57;;;10.80;99.90;;;;;;4929453;29;20063;-73
2022/11/14 11:38:16;;;;;;;9.98;5.20;;;10.70;99.90;;;;;;4929084;29;20110;-73
2022/11/14 11:40:49;;;;;;;7.38;4.82;;;10.70;99.90;;;;;;4928082;29;20043;-72
2022/11/14 11:43:29;;;;;;;7.78;4.88;;;10.90;99.90;;;;;;4928229;29;20032;-72
2022/11/14 11:45:58;;;;;;;10.18;5.22;;;10.90;99.90;;;;;;4929867;29;20123;-72
2022/11/14 11:48:38;;;;;;;6.63;4.43;;;11.00;99.90;;;;;;4934728;29;20385;-72
2022/11/14 11:51:09;;;;;;;7.40;5.05;;;11.00;99.90;;;;;;4926440;29;20032;-73
2022/11/14 11:53:42;;;;;;;7.20;4.20;;;11.10;99.90;;;;;;4932993;29;20082;-73
2022/11/14 11:56:18;;;;;;;7.28;4.18;;;11.00;99.90;;;;;;4927419;29;20042;-74
2022/11/14 11:58:49;;;;;;;13.95;4.65;;;10.80;99.90;;;;;;4931713;29;20059;-73
2022/11/14 12:01:16;;;;;;;8.75;5.32;;;10.90;99.90;;;;;;4932656;29;20027;-74
2022/11/14 12:03:50;;;;;;;10.68;5.28;;;10.90;99.90;;;;;;4932140;29;20039;-75
2022/11/14 12:06:26;;;;;;;9.90;5.95;;;10.80;99.90;;;;;;4931781;29;20475;-75
2022/11/14 12:09:05;;;;;;;9.13;5.65;;;10.70;99.90;;;;;;4930701;29;20028;-75
2022/11/14 12:11:36;;;;;;;8.63;5.85;;;10.80;99.90;;;;;;4932443;29;20376;-75
2022/11/14 12:14:23;;;;;;;8.85;5.65;;;10.90;99.90;;;;;;4932141;29;20042;-75
2022/11/14 12:17:10;;;;;;;9.68;5.75;;;11.10;99.90;;;;;;4932119;29;20031;-75
2022/11/14 12:19:42;;;;;;;7.28;4.90;;;11.20;99.90;;;;;;4930771;29;20031;-74
2022/11/14 12:22:08;;;;;;;8.20;5.50;;;11.30;99.90;;;;;;4928908;29;20035;-75
2022/11/14 12:24:57;;;;;;;7.63;4.82;;;11.30;99.90;;;;;;4929686;29;20505;-75
2022/11/14 12:27:42;;;;;;;8.13;4.53;;;11.30;99.90;;;;;;4945491;29;20031;-75
2022/11/14 12:30:10;;;;;;;6.97;4.72;;;11.30;99.90;;;;;;4948833;28;20024;-75
2022/11/14 12:32:45;;;;;;;7.60;4.63;;;11.30;99.90;;;;;;4949639;29;20042;-75
2022/11/14 12:35:23;;;;;;;6.10;3.95;;;11.40;99.90;;;;;;4950451;28;20039;-75
2022/11/14 12:37:51;;;;;;;6.70;3.10;;;11.30;99.90;;;;;;4949014;28;20031;-75
2022/11/14 12:40:25;;;;;;;6.63;3.58;;;11.20;99.90;;;;;;4950324;29;20031;-74
2022/11/14 12:42:51;;;;;;;5.78;3.90;;;11.30;99.90;;;;;;4950733;28;20034;-74
2022/11/14 12:45:41;;;;;;;6.20;4.00;;;11.30;99.90;;;;;;4950717;28;20027;-74
2022/11/14 12:48:25;;;;;;;5.20;3.83;;;11.30;99.90;;;;;;4955178;28;20049;-74
2022/11/14 12:50:52;;;;;;;7.38;3.78;;;11.40;99.90;;;;;;4948938;28;20063;-75
2022/11/14 12:53:36;;;;;;;5.35;3.38;;;11.30;99.90;;;;;;4931279;29;20161;-72
2022/11/14 12:56:40;;;;;;;5.13;3.38;;;11.40;99.90;;;;;;4930847;29;20032;-73
2022/11/14 12:59:12;;;;;;;7.45;4.57;;;11.40;99.90;;;;;;4938663;29;20047;-73
2022/11/14 13:02:04;;;;;;;7.93;5.18;;;11.30;99.90;;;;;;4929782;28;20095;-73
2022/11/14 13:04:41;;;;;;;9.05;5.63;;;11.30;99.90;;;;;;4933774;29;20043;-73
2022/11/14 13:07:14;;;;;;;9.40;5.28;;;11.30;99.90;;;;;;4931744;29;20031;-72
2022/11/14 13:09:52;;;;;;;9.40;5.00;;;11.30;99.90;;;;;;4928702;29;20079;-73